sensor_id;sensor_type;location;lat;lon;timestamp;temperature;humidity
7498;DHT22;3790;48.806;9.140;2022-09-13T00:03:14;15.80;99.90
7498;DHT22;3790;48.806;9.140;2022-09-13T00:08:15;15.70;99.90
7498;DHT22;3790;48.806;9.140;2022-09-13T00:13:17;15.70;99.90
7498;DHT22;3790;48.806;9.140;2022-09-13T00:18:18;15.50;99.90
7498;DHT22;3790;48.806;9.140;2022-09-13T00:23:18;15.30;99.90
7498;DHT22;3790;48.806;9.140;2022-09-13T00:28:19;15.40;99.90
7498;DHT22;3790;48.806;9.140;2022-09-13T00:33:19;15.40;99.90
7498;DHT22;3790;48.806;9.140;2022-09-13T00:38:20;15.40;99.90
7498;DHT22;3790;48.806;9.140;2022-09-13T00:43:49;15.30;99.90
7498;DHT22;3790;48.806;9.140;2022-09-13T00:48:54;15.30;99.90
7498;DHT22;3790;48.806;9.140;2022-09-13T00:53:56;15.10;99.90
7498;DHT22;3790;48.806;9.140;2022-09-13T00:59:06;14.80;99.90
7498;DHT22;3790;48.806;9.140;2022-09-13T01:04:07;14.80;99.90
7498;DHT22;3790;48.806;9.140;2022-09-13T01:09:09;14.80;99.90
7498;DHT22;3790;48.806;9.140;2022-09-13T01:14:11;14.90;99.90
7498;DHT22;3790;48.806;9.140;2022-09-13T01:19:12;14.80;99.90
7498;DHT22;3790;48.806;9.140;2022-09-13T01:35:27;14.60;99.90
7498;DHT22;3790;48.806;9.140;2022-09-13T01:46:04;14.40;99.90
7498;DHT22;3790;48.806;9.140;2022-09-13T01:51:10;14.30;99.90
7498;DHT22;3790;48.806;9.140;2022-09-13T01:56:26;14.30;99.90
7498;DHT22;3790;48.806;9.140;2022-09-13T02:01:49;14.30;99.90
7498;DHT22;3790;48.806;9.140;2022-09-13T02:07:13;14.50;99.90
7498;DHT22;3790;48.806;9.140;2022-09-13T02:12:20;14.50;99.90
7498;DHT22;3790;48.806;9.140;2022-09-13T02:17:24;14.40;99.90
7498;DHT22;3790;48.806;9.140;2022-09-13T02:22:31;14.40;99.90
7498;DHT22;3790;48.806;9.140;2022-09-13T02:27:34;14.40;99.90
7498;DHT22;3790;48.806;9.140;2022-09-13T02:32:52;14.30;99.90
7498;DHT22;3790;48.806;9.140;2022-09-13T02:37:59;14.30;99.90
7498;DHT22;3790;48.806;9.140;2022-09-13T02:43:05;14.20;99.90
7498;DHT22;3790;48.806;9.140;2022-09-13T02:48:11;14.30;99.90
7498;DHT22;3790;48.806;9.140;2022-09-13T02:53:30;14.40;99.90
7498;DHT22;3790;48.806;9.140;2022-09-13T02:58:45;14.40;99.90
7498;DHT22;3790;48.806;9.140;2022-09-13T03:03:48;14.30;99.90
7498;DHT22;3790;48.806;9.140;2022-09-13T03:08:52;14.30;99.90
7498;DHT22;3790;48.806;9.140;2022-09-13T03:20:00;14.40;99.90
7498;DHT22;3790;48.806;9.140;2022-09-13T03:30:34;14.40;99.90
7498;DHT22;3790;48.806;9.140;2022-09-13T03:35:55;14.30;99.90
7498;DHT22;3790;48.806;9.140;2022-09-13T03:41:07;14.10;99.90
7498;DHT22;3790;48.806;9.140;2022-09-13T03:46:14;13.90;99.90
7498;DHT22;3790;48.806;9.140;2022-09-13T03:51:17;13.70;99.90
7498;DHT22;3790;48.806;9.140;2022-09-13T03:56:19;13.70;99.90
7498;DHT22;3790;48.806;9.140;2022-09-13T04:01:22;13.80;99.90
7498;DHT22;3790;48.806;9.140;2022-09-13T04:06:23;13.80;99.90
7498;DHT22;3790;48.806;9.140;2022-09-13T04:11:23;13.90;99.90
7498;DHT22;3790;48.806;9.140;2022-09-13T04:16:24;14.00;99.90
7498;DHT22;3790;48.806;9.140;2022-09-13T04:21:24;14.00;99.90
7498;DHT22;3790;48.806;9.140;2022-09-13T04:26:25;14.00;99.90
7498;DHT22;3790;48.806;9.140;2022-09-13T04:31:25;14.10;99.90
7498;DHT22;3790;48.806;9.140;2022-09-13T04:36:26;14.30;99.90
7498;DHT22;3790;48.806;9.140;2022-09-13T04:41:28;14.40;99.90
7498;DHT22;3790;48.806;9.140;2022-09-13T04:46:28;14.00;99.90
7498;DHT22;3790;48.806;9.140;2022-09-13T04:51:29;14.00;99.90
7498;DHT22;3790;48.806;9.140;2022-09-13T04:56:29;14.20;99.90
7498;DHT22;3790;48.806;9.140;2022-09-13T05:01:30;14.40;99.90
7498;DHT22;3790;48.806;9.140;2022-09-13T05:06:30;14.50;99.90
7498;DHT22;3790;48.806;9.140;2022-09-13T05:11:31;14.60;99.90
7498;DHT22;3790;48.806;9.140;2022-09-13T05:16:32;14.70;99.90
7498;DHT22;3790;48.806;9.140;2022-09-13T05:21:33;14.80;99.90
7498;DHT22;3790;48.806;9.140;2022-09-13T05:26:34;14.90;99.90
7498;DHT22;3790;48.806;9.140;2022-09-13T05:31:37;15.00;99.90
7498;DHT22;3790;48.806;9.140;2022-09-13T05:36:37;15.00;99.90
7498;DHT22;3790;48.806;9.140;2022-09-13T05:41:38;15.00;99.90
7498;DHT22;3790;48.806;9.140;2022-09-13T05:46:39;15.00;99.90
7498;DHT22;3790;48.806;9.140;2022-09-13T05:51:39;15.00;99.90
7498;DHT22;3790;48.806;9.140;2022-09-13T05:56:40;15.10;99.90
7498;DHT22;3790;48.806;9.140;2022-09-13T06:01:40;15.30;99.90
7498;DHT22;3790;48.806;9.140;2022-09-13T06:06:41;15.50;99.90
7498;DHT22;3790;48.806;9.140;2022-09-13T06:11:42;15.80;99.90
7498;DHT22;3790;48.806;9.140;2022-09-13T06:16:42;15.80;99.90
7498;DHT22;3790;48.806;9.140;2022-09-13T06:21:42;15.70;99.90
7498;DHT22;3790;48.806;9.140;2022-09-13T06:26:43;15.70;99.90
7498;DHT22;3790;48.806;9.140;2022-09-13T06:31:43;15.60;99.90
7498;DHT22;3790;48.806;9.140;2022-09-13T06:36:44;15.50;99.90
7498;DHT22;3790;48.806;9.140;2022-09-13T06:41:45;15.60;99.90
7498;DHT22;3790;48.806;9.140;2022-09-13T06:46:46;15.60;99.90
7498;DHT22;3790;48.806;9.140;2022-09-13T06:51:46;15.80;99.90
7498;DHT22;3790;48.806;9.140;2022-09-13T06:56:47;16.00;99.90
7498;DHT22;3790;48.806;9.140;2022-09-13T07:01:47;16.30;99.90
7498;DHT22;3790;48.806;9.140;2022-09-13T07:06:48;16.40;99.90
7498;DHT22;3790;48.806;9.140;2022-09-13T07:11:52;16.60;99.90
7498;DHT22;3790;48.806;9.140;2022-09-13T07:16:53;16.90;99.90
7498;DHT22;3790;48.806;9.140;2022-09-13T07:21:55;17.40;99.90
7498;DHT22;3790;48.806;9.140;2022-09-13T07:26:56;18.00;99.90
7498;DHT22;3790;48.806;9.140;2022-09-13T07:31:56;18.40;99.90
7498;DHT22;3790;48.806;9.140;2022-09-13T07:36:57;18.60;99.90
7498;DHT22;3790;48.806;9.140;2022-09-13T07:41:58;18.60;99.90
7498;DHT22;3790;48.806;9.140;2022-09-13T07:46:59;18.80;99.90
7498;DHT22;3790;48.806;9.140;2022-09-13T07:51:59;19.30;99.90
7498;DHT22;3790;48.806;9.140;2022-09-13T07:57:00;20.00;99.90
7498;DHT22;3790;48.806;9.140;2022-09-13T08:02:00;21.00;99.90
7498;DHT22;3790;48.806;9.140;2022-09-13T08:07:01;21.50;99.90
7498;DHT22;3790;48.806;9.140;2022-09-13T08:12:02;22.20;99.90
7498;DHT22;3790;48.806;9.140;2022-09-13T08:17:02;22.80;99.90
7498;DHT22;3790;48.806;9.140;2022-09-13T08:22:03;22.50;99.90
7498;DHT22;3790;48.806;9.140;2022-09-13T08:27:03;22.60;99.90
7498;DHT22;3790;48.806;9.140;2022-09-13T08:32:04;22.80;99.90
7498;DHT22;3790;48.806;9.140;2022-09-13T08:37:04;22.80;99.90
7498;DHT22;3790;48.806;9.140;2022-09-13T08:52:32;23.50;99.90
7498;DHT22;3790;48.806;9.140;2022-09-13T08:57:41;23.70;99.90
7498;DHT22;3790;48.806;9.140;2022-09-13T09:13:29;24.20;99.90
7498;DHT22;3790;48.806;9.140;2022-09-13T09:18:37;24.60;99.90
7498;DHT22;3790;48.806;9.140;2022-09-13T09:23:53;24.60;99.90
7498;DHT22;3790;48.806;9.140;2022-09-13T09:29:16;24.70;99.90
7498;DHT22;3790;48.806;9.140;2022-09-13T09:34:44;24.70;99.90
7498;DHT22;3790;48.806;9.140;2022-09-13T09:39:48;25.10;99.90
7498;DHT22;3790;48.806;9.140;2022-09-13T09:44:52;25.30;99.90
7498;DHT22;3790;48.806;9.140;2022-09-13T09:55:29;25.40;99.90
7498;DHT22;3790;48.806;9.140;2022-09-13T10:00:33;25.20;99.90
7498;DHT22;3790;48.806;9.140;2022-09-13T10:05:35;25.30;99.90
7498;DHT22;3790;48.806;9.140;2022-09-13T10:10:41;25.00;99.90
7498;DHT22;3790;48.806;9.140;2022-09-13T10:16:20;24.50;99.90
7498;DHT22;3790;48.806;9.140;2022-09-13T10:21:26;24.40;99.90
7498;DHT22;3790;48.806;9.140;2022-09-13T10:26:26;24.40;99.90
7498;DHT22;3790;48.806;9.140;2022-09-13T10:31:34;24.50;99.90
7498;DHT22;3790;48.806;9.140;2022-09-13T10:36:36;24.80;99.90
7498;DHT22;3790;48.806;9.140;2022-09-13T10:41:39;24.70;99.90
7498;DHT22;3790;48.806;9.140;2022-09-13T10:46:42;25.00;99.90
7498;DHT22;3790;48.806;9.140;2022-09-13T10:51:47;25.80;99.90
7498;DHT22;3790;48.806;9.140;2022-09-13T10:56:48;26.30;99.90
7498;DHT22;3790;48.806;9.140;2022-09-13T11:13:11;28.50;98.60
7498;DHT22;3790;48.806;9.140;2022-09-13T11:18:33;28.40;98.90
7498;DHT22;3790;48.806;9.140;2022-09-13T11:24:33;29.00;97.70
7498;DHT22;3790;48.806;9.140;2022-09-13T11:29:40;29.60;96.00
7498;DHT22;3790;48.806;9.140;2022-09-13T11:35:02;29.70;95.90
7498;DHT22;3790;48.806;9.140;2022-09-13T11:40:28;30.00;96.10
7498;DHT22;3790;48.806;9.140;2022-09-13T11:51:10;30.60;92.70
7498;DHT22;3790;48.806;9.140;2022-09-13T11:56:20;32.10;91.10
7498;DHT22;3790;48.806;9.140;2022-09-13T12:01:28;32.20;89.20
7498;DHT22;3790;48.806;9.140;2022-09-13T12:06:34;32.10;87.50
7498;DHT22;3790;48.806;9.140;2022-09-13T12:11:43;33.30;86.30
7498;DHT22;3790;48.806;9.140;2022-09-13T12:16:57;34.80;82.30
7498;DHT22;3790;48.806;9.140;2022-09-13T12:22:02;36.70;75.00
7498;DHT22;3790;48.806;9.140;2022-09-13T12:27:10;36.10;72.30
7498;DHT22;3790;48.806;9.140;2022-09-13T12:32:12;34.80;72.20
7498;DHT22;3790;48.806;9.140;2022-09-13T12:42:59;34.90;71.60
7498;DHT22;3790;48.806;9.140;2022-09-13T12:48:13;36.60;67.50
7498;DHT22;3790;48.806;9.140;2022-09-13T13:04:26;40.80;57.30
7498;DHT22;3790;48.806;9.140;2022-09-13T13:09:44;40.10;55.40
7498;DHT22;3790;48.806;9.140;2022-09-13T13:14:48;39.90;55.60
7498;DHT22;3790;48.806;9.140;2022-09-13T13:19:52;40.40;54.30
7498;DHT22;3790;48.806;9.140;2022-09-13T13:24:54;41.50;51.80
7498;DHT22;3790;48.806;9.140;2022-09-13T13:30:40;39.10;51.30
7498;DHT22;3790;48.806;9.140;2022-09-13T13:35:41;35.40;53.70
7498;DHT22;3790;48.806;9.140;2022-09-13T13:40:42;33.90;55.20
7498;DHT22;3790;48.806;9.140;2022-09-13T13:51:23;37.80;53.60
7498;DHT22;3790;48.806;9.140;2022-09-13T13:56:48;38.10;51.10
7498;DHT22;3790;48.806;9.140;2022-09-13T14:01:52;35.90;52.60
7498;DHT22;3790;48.806;9.140;2022-09-13T14:07:28;34.50;53.50
7498;DHT22;3790;48.806;9.140;2022-09-13T14:12:48;32.70;55.90
7498;DHT22;3790;48.806;9.140;2022-09-13T14:23:18;33.80;52.30
7498;DHT22;3790;48.806;9.140;2022-09-13T14:28:20;33.70;51.00
7498;DHT22;3790;48.806;9.140;2022-09-13T14:33:42;34.90;50.90
7498;DHT22;3790;48.806;9.140;2022-09-13T14:38:48;37.60;49.70
7498;DHT22;3790;48.806;9.140;2022-09-13T14:43:49;43.70;45.10
7498;DHT22;3790;48.806;9.140;2022-09-13T14:49:06;42.50;41.70
7498;DHT22;3790;48.806;9.140;2022-09-13T14:54:16;38.90;43.20
7498;DHT22;3790;48.806;9.140;2022-09-13T14:59:25;36.50;45.70
7498;DHT22;3790;48.806;9.140;2022-09-13T15:04:26;34.30;48.00
7498;DHT22;3790;48.806;9.140;2022-09-13T15:09:27;32.60;52.20
7498;DHT22;3790;48.806;9.140;2022-09-13T15:14:33;31.50;52.30
7498;DHT22;3790;48.806;9.140;2022-09-13T15:19:36;30.50;53.10
7498;DHT22;3790;48.806;9.140;2022-09-13T15:24:38;29.60;54.20
7498;DHT22;3790;48.806;9.140;2022-09-13T15:29:48;28.90;55.20
7498;DHT22;3790;48.806;9.140;2022-09-13T15:34:49;28.60;55.70
7498;DHT22;3790;48.806;9.140;2022-09-13T15:40:39;28.40;56.60
7498;DHT22;3790;48.806;9.140;2022-09-13T15:45:27;28.20;56.80
7498;DHT22;3790;48.806;9.140;2022-09-13T15:50:29;28.10;55.50
7498;DHT22;3790;48.806;9.140;2022-09-13T15:55:31;27.90;55.20
7498;DHT22;3790;48.806;9.140;2022-09-13T16:00:31;27.80;56.30
7498;DHT22;3790;48.806;9.140;2022-09-13T16:05:32;27.50;56.40
7498;DHT22;3790;48.806;9.140;2022-09-13T16:10:32;27.30;57.30
7498;DHT22;3790;48.806;9.140;2022-09-13T16:15:33;27.00;59.60
7498;DHT22;3790;48.806;9.140;2022-09-13T16:20:34;26.90;62.00
7498;DHT22;3790;48.806;9.140;2022-09-13T16:25:34;26.80;64.10
7498;DHT22;3790;48.806;9.140;2022-09-13T16:30:36;26.80;67.30
7498;DHT22;3790;48.806;9.140;2022-09-13T16:35:37;26.70;69.00
7498;DHT22;3790;48.806;9.140;2022-09-13T16:40:39;26.50;71.20
7498;DHT22;3790;48.806;9.140;2022-09-13T16:45:40;26.40;74.40
7498;DHT22;3790;48.806;9.140;2022-09-13T16:50:42;26.30;78.10
7498;DHT22;3790;48.806;9.140;2022-09-13T16:55:42;26.10;81.30
7498;DHT22;3790;48.806;9.140;2022-09-13T17:00:45;25.90;82.80
7498;DHT22;3790;48.806;9.140;2022-09-13T17:05:59;25.60;85.30
7498;DHT22;3790;48.806;9.140;2022-09-13T17:11:04;25.30;88.80
7498;DHT22;3790;48.806;9.140;2022-09-13T17:16:06;25.10;90.40
7498;DHT22;3790;48.806;9.140;2022-09-13T17:21:06;24.80;91.00
7498;DHT22;3790;48.806;9.140;2022-09-13T17:26:07;24.60;91.90
7498;DHT22;3790;48.806;9.140;2022-09-13T17:31:07;24.40;93.60
7498;DHT22;3790;48.806;9.140;2022-09-13T17:36:10;24.30;94.20
7498;DHT22;3790;48.806;9.140;2022-09-13T17:41:15;24.10;95.90
7498;DHT22;3790;48.806;9.140;2022-09-13T17:46:19;24.00;98.50
7498;DHT22;3790;48.806;9.140;2022-09-13T17:51:25;23.70;99.40
7498;DHT22;3790;48.806;9.140;2022-09-13T17:56:31;23.50;99.90
7498;DHT22;3790;48.806;9.140;2022-09-13T18:01:34;23.40;99.70
7498;DHT22;3790;48.806;9.140;2022-09-13T18:06:36;23.30;99.90
7498;DHT22;3790;48.806;9.140;2022-09-13T18:11:37;23.10;99.90
7498;DHT22;3790;48.806;9.140;2022-09-13T18:16:38;22.80;99.90
7498;DHT22;3790;48.806;9.140;2022-09-13T18:21:39;22.70;99.90
7498;DHT22;3790;48.806;9.140;2022-09-13T18:26:40;22.60;99.90
7498;DHT22;3790;48.806;9.140;2022-09-13T18:31:41;22.40;99.90
7498;DHT22;3790;48.806;9.140;2022-09-13T18:36:42;22.40;99.90
7498;DHT22;3790;48.806;9.140;2022-09-13T18:41:43;22.30;99.90
7498;DHT22;3790;48.806;9.140;2022-09-13T18:46:45;22.30;99.90
7498;DHT22;3790;48.806;9.140;2022-09-13T18:51:47;22.30;99.90
7498;DHT22;3790;48.806;9.140;2022-09-13T18:56:48;22.20;99.90
7498;DHT22;3790;48.806;9.140;2022-09-13T19:01:49;22.10;99.90
7498;DHT22;3790;48.806;9.140;2022-09-13T19:06:54;22.00;99.90
7498;DHT22;3790;48.806;9.140;2022-09-13T19:11:57;22.10;99.90
7498;DHT22;3790;48.806;9.140;2022-09-13T19:16:58;22.20;99.90
7498;DHT22;3790;48.806;9.140;2022-09-13T19:22:00;22.20;99.90
7498;DHT22;3790;48.806;9.140;2022-09-13T19:27:00;22.20;99.90
7498;DHT22;3790;48.806;9.140;2022-09-13T19:32:01;22.20;99.90
7498;DHT22;3790;48.806;9.140;2022-09-13T19:37:02;22.20;99.90
7498;DHT22;3790;48.806;9.140;2022-09-13T19:42:03;22.10;99.90
7498;DHT22;3790;48.806;9.140;2022-09-13T19:47:03;22.10;99.90
7498;DHT22;3790;48.806;9.140;2022-09-13T19:52:06;22.10;99.90
7498;DHT22;3790;48.806;9.140;2022-09-13T19:57:07;22.20;99.90
7498;DHT22;3790;48.806;9.140;2022-09-13T20:02:09;22.20;99.90
7498;DHT22;3790;48.806;9.140;2022-09-13T20:07:10;22.20;99.90
7498;DHT22;3790;48.806;9.140;2022-09-13T20:12:13;22.20;99.90
7498;DHT22;3790;48.806;9.140;2022-09-13T20:17:13;22.20;99.90
7498;DHT22;3790;48.806;9.140;2022-09-13T20:22:14;22.00;99.90
7498;DHT22;3790;48.806;9.140;2022-09-13T20:27:14;21.90;99.90
7498;DHT22;3790;48.806;9.140;2022-09-13T20:32:15;21.70;99.90
7498;DHT22;3790;48.806;9.140;2022-09-13T20:37:17;21.50;99.90
7498;DHT22;3790;48.806;9.140;2022-09-13T20:42:18;21.40;99.90
7498;DHT22;3790;48.806;9.140;2022-09-13T20:47:18;21.40;99.90
7498;DHT22;3790;48.806;9.140;2022-09-13T20:52:19;21.30;99.90
7498;DHT22;3790;48.806;9.140;2022-09-13T20:57:19;21.30;99.90
7498;DHT22;3790;48.806;9.140;2022-09-13T21:02:20;21.20;99.90
7498;DHT22;3790;48.806;9.140;2022-09-13T21:07:28;21.20;99.90
7498;DHT22;3790;48.806;9.140;2022-09-13T21:12:50;21.10;99.90
7498;DHT22;3790;48.806;9.140;2022-09-13T21:17:52;21.20;99.90
7498;DHT22;3790;48.806;9.140;2022-09-13T21:22:53;21.10;99.90
7498;DHT22;3790;48.806;9.140;2022-09-13T21:27:54;21.00;99.90
7498;DHT22;3790;48.806;9.140;2022-09-13T21:32:55;20.90;99.90
7498;DHT22;3790;48.806;9.140;2022-09-13T21:37:55;20.80;99.90
7498;DHT22;3790;48.806;9.140;2022-09-13T21:42:56;20.90;99.90
7498;DHT22;3790;48.806;9.140;2022-09-13T21:47:57;20.80;99.90
7498;DHT22;3790;48.806;9.140;2022-09-13T21:52:58;20.80;99.90
7498;DHT22;3790;48.806;9.140;2022-09-13T21:57:58;20.80;99.90
7498;DHT22;3790;48.806;9.140;2022-09-13T22:02:59;20.70;99.90
7498;DHT22;3790;48.806;9.140;2022-09-13T22:08:00;20.60;99.90
7498;DHT22;3790;48.806;9.140;2022-09-13T22:13:00;20.60;99.90
7498;DHT22;3790;48.806;9.140;2022-09-13T22:18:01;20.60;99.90
7498;DHT22;3790;48.806;9.140;2022-09-13T22:23:01;20.50;99.90
7498;DHT22;3790;48.806;9.140;2022-09-13T22:28:02;20.50;99.90
7498;DHT22;3790;48.806;9.140;2022-09-13T22:33:02;20.40;99.90
7498;DHT22;3790;48.806;9.140;2022-09-13T22:38:03;20.50;99.90
7498;DHT22;3790;48.806;9.140;2022-09-13T22:43:03;20.30;99.90
7498;DHT22;3790;48.806;9.140;2022-09-13T22:48:04;20.20;99.90
7498;DHT22;3790;48.806;9.140;2022-09-13T22:53:04;20.30;99.90
7498;DHT22;3790;48.806;9.140;2022-09-13T22:58:05;20.30;99.90
7498;DHT22;3790;48.806;9.140;2022-09-13T23:03:05;20.10;99.90
7498;DHT22;3790;48.806;9.140;2022-09-13T23:08:06;19.90;99.90
7498;DHT22;3790;48.806;9.140;2022-09-13T23:13:07;19.80;99.90
7498;DHT22;3790;48.806;9.140;2022-09-13T23:18:07;19.60;99.90
7498;DHT22;3790;48.806;9.140;2022-09-13T23:23:10;19.40;99.90
7498;DHT22;3790;48.806;9.140;2022-09-13T23:28:10;19.50;99.90
7498;DHT22;3790;48.806;9.140;2022-09-13T23:33:10;19.50;99.90
7498;DHT22;3790;48.806;9.140;2022-09-13T23:38:11;19.60;99.90
7498;DHT22;3790;48.806;9.140;2022-09-13T23:43:12;19.80;99.90
7498;DHT22;3790;48.806;9.140;2022-09-13T23:48:13;19.80;99.90
7498;DHT22;3790;48.806;9.140;2022-09-13T23:53:13;19.90;99.90
7498;DHT22;3790;48.806;9.140;2022-09-13T23:58:14;20.00;99.90
